createdAt,value
2023-01-19T00:01:29.953Z,98441.72
2023-01-19T00:03:57.981Z,98439.09
2023-01-19T00:06:25.588Z,98446.91
2023-01-19T00:08:54.225Z,98440.84
2023-01-19T00:11:21.896Z,98445.13
2023-01-19T00:13:50.927Z,98445.13
2023-01-19T00:16:22.295Z,98448.59
2023-01-19T00:18:51.368Z,98445.97
2023-01-19T00:21:19.009Z,98443.34
2023-01-19T00:23:48.286Z,98443.34
2023-01-19T00:26:17.077Z,98441.59
2023-01-19T00:28:44.781Z,98445.09
2023-01-19T00:31:12.629Z,98393.44
2023-01-19T00:33:41.973Z,98438.22
2023-01-19T00:36:10.864Z,98445.13
2023-01-19T00:38:38.913Z,98439.09
2023-01-19T00:41:06.819Z,98449.44
2023-01-19T00:43:33.501Z,98454.63
2023-01-19T00:46:01.187Z,98452.00
2023-01-19T00:48:29.440Z,98438.22
2023-01-19T00:50:59.925Z,98450.28
2023-01-19T00:53:29.075Z,98446.00
2023-01-19T00:55:56.790Z,98451.16
2023-01-19T00:58:26.454Z,98435.59
2023-01-19T01:00:57.438Z,98436.47
2023-01-19T01:03:28.624Z,98438.19
2023-01-19T01:05:56.215Z,98433.03
2023-01-19T01:08:25.383Z,98444.25
2023-01-19T01:10:53.017Z,98452.91
2023-01-19T01:13:22.343Z,98433.91
2023-01-19T01:15:51.836Z,98440.84
2023-01-19T01:18:19.463Z,98446.00
2023-01-19T01:20:47.195Z,98436.50
2023-01-19T01:23:14.932Z,98452.91
2023-01-19T01:25:44.010Z,98433.09
2023-01-19T01:28:11.620Z,98455.50
2023-01-19T01:30:40.879Z,98456.34
2023-01-19T01:33:08.519Z,98459.75
2023-01-19T01:35:36.136Z,98459.78
2023-01-19T01:38:03.885Z,98451.19
2023-01-19T01:40:31.485Z,98467.53
2023-01-19T01:43:00.880Z,98470.97
2023-01-19T01:45:31.221Z,98469.25
2023-01-19T01:48:02.978Z,98411.56
2023-01-19T01:50:31.101Z,98469.31
2023-01-19T01:53:06.397Z,98462.38
2023-01-19T01:55:34.838Z,98463.22
2023-01-19T01:58:04.655Z,98464.97
2023-01-19T02:00:52.681Z,98463.22
2023-01-19T02:03:19.457Z,98459.78
2023-01-19T02:05:47.027Z,98462.34
2023-01-19T02:08:34.284Z,98440.84
2023-01-19T02:11:19.594Z,98465.78
2023-01-19T02:13:48.507Z,98452.91
2023-01-19T02:16:16.556Z,98430.53
2023-01-19T02:18:45.219Z,98454.63
2023-01-19T02:21:14.099Z,98436.53
2023-01-19T02:23:44.931Z,98456.41
2023-01-19T02:26:14.284Z,98446.91
2023-01-19T02:28:44.343Z,98464.13
2023-01-19T02:31:11.980Z,98457.19
2023-01-19T02:33:39.638Z,98455.47
2023-01-19T02:36:09.040Z,98455.44
2023-01-19T02:38:36.728Z,98458.00
2023-01-19T02:41:07.240Z,98416.66
2023-01-19T02:43:34.906Z,98447.69
2023-01-19T02:46:03.042Z,98445.06
2023-01-19T02:48:30.701Z,98460.63
2023-01-19T02:50:59.423Z,98458.94
2023-01-19T02:53:56.603Z,98454.63
2023-01-19T02:57:00.976Z,98429.63
2023-01-19T02:59:37.093Z,98459.81
2023-01-19T03:02:17.609Z,98453.78
2023-01-19T03:04:54.793Z,98440.00
2023-01-19T03:07:24.897Z,98439.06
2023-01-19T03:09:53.995Z,98453.75
2023-01-19T03:12:26.133Z,98433.91
2023-01-19T03:14:53.983Z,98447.69
2023-01-19T03:17:21.557Z,98395.19
2023-01-19T03:19:49.550Z,98434.78
2023-01-19T03:22:19.424Z,98433.09
2023-01-19T03:24:47.243Z,98445.13
2023-01-19T03:27:16.044Z,98440.84
2023-01-19T03:29:47.633Z,98443.41
2023-01-19T03:32:17.460Z,98427.84
2023-01-19T03:34:45.003Z,98437.31
2023-01-19T03:37:12.846Z,98453.75
2023-01-19T03:39:42.124Z,98443.41
2023-01-19T03:42:12.009Z,98450.28
2023-01-19T03:44:40.241Z,98458.06
2023-01-19T03:47:09.702Z,98437.31
2023-01-19T03:49:37.731Z,98435.59
2023-01-19T03:52:05.897Z,98439.91
2023-01-19T03:54:33.555Z,98454.63
2023-01-19T03:57:01.102Z,98452.00
2023-01-19T03:59:28.772Z,98446.00
2023-01-19T04:01:56.358Z,98457.22
2023-01-19T04:04:25.856Z,98459.78
2023-01-19T04:06:53.395Z,98451.19
2023-01-19T04:09:21.069Z,98464.16
2023-01-19T04:11:48.662Z,98463.28
2023-01-19T04:14:16.408Z,98446.84
2023-01-19T04:16:44.049Z,98440.03
2023-01-19T04:19:11.640Z,98446.84
2023-01-19T04:21:40.671Z,98446.03
2023-01-19T04:24:10.077Z,98459.84
2023-01-19T04:26:37.716Z,98462.41
2023-01-19T04:29:05.514Z,98453.72
2023-01-19T04:31:35.489Z,98465.81
2023-01-19T04:34:03.136Z,98452.91
2023-01-19T04:36:31.277Z,98452.03
2023-01-19T04:39:00.283Z,98439.94
2023-01-19T04:41:29.128Z,98446.88
2023-01-19T04:43:57.895Z,98443.41
2023-01-19T04:46:25.643Z,98453.81
2023-01-19T04:48:53.188Z,98435.69
2023-01-19T04:51:20.806Z,98332.38
2023-01-19T04:53:48.388Z,98446.13
2023-01-19T04:56:24.544Z,98434.91
2023-01-19T04:58:52.195Z,98439.22
2023-01-19T05:01:19.899Z,98439.25
2023-01-19T05:03:47.463Z,98428.91
2023-01-19T05:06:15.177Z,98440.13
2023-01-19T05:08:44.609Z,98439.28
2023-01-19T05:11:13.045Z,98446.16
2023-01-19T05:13:41.986Z,98447.03
2023-01-19T05:16:09.572Z,98443.59
2023-01-19T05:18:37.358Z,98448.75
2023-01-19T05:21:05.339Z,98438.44
2023-01-19T05:23:32.981Z,98438.41
2023-01-19T05:26:01.932Z,98403.94
2023-01-19T05:28:29.867Z,98441.00
2023-01-19T05:30:58.937Z,98442.75
2023-01-19T05:33:27.630Z,98451.38
2023-01-19T05:35:55.436Z,98439.28
2023-01-19T05:38:34.347Z,98452.22
2023-01-19T05:41:02.791Z,98450.47
2023-01-19T05:43:30.583Z,98456.53
2023-01-19T05:45:59.581Z,98459.97
2023-01-19T05:48:27.221Z,98454.78
2023-01-19T05:50:58.450Z,98468.56
2023-01-19T05:53:26.502Z,98450.47
2023-01-19T05:55:54.100Z,98454.78
2023-01-19T05:58:21.810Z,98463.41
2023-01-19T06:00:49.450Z,98472.03
2023-01-19T06:03:18.836Z,98459.06
2023-01-19T06:05:46.432Z,98473.69
2023-01-19T06:08:14.283Z,98469.41
2023-01-19T06:10:42.193Z,98473.75
2023-01-19T06:13:11.117Z,98473.72
2023-01-19T06:15:38.704Z,98482.38
2023-01-19T06:20:42.525Z,98490.16
2023-01-19T06:23:10.601Z,98486.72
2023-01-19T06:25:39.312Z,98487.59
2023-01-19T06:28:07.113Z,98490.16
2023-01-19T06:30:35.905Z,98461.72
2023-01-19T06:33:03.690Z,98466.00
2023-01-19T06:35:33.784Z,98489.28
2023-01-19T06:38:03.006Z,98484.97
2023-01-19T06:40:30.635Z,98495.34
2023-01-19T06:42:58.769Z,98422.91
2023-01-19T06:45:26.780Z,98495.31
2023-01-19T06:47:55.065Z,98495.34
2023-01-19T06:50:22.941Z,98502.22
2023-01-19T06:52:51.697Z,98483.25
2023-01-19T06:55:20.857Z,98469.44
2023-01-19T06:57:57.236Z,98500.50
2023-01-19T07:00:25.253Z,98509.97
2023-01-19T07:02:53.258Z,98514.31
2023-01-19T07:05:22.136Z,98497.09
2023-01-19T07:07:53.609Z,98519.50
2023-01-19T07:10:22.686Z,98548.00
2023-01-19T07:12:50.365Z,98487.59
2023-01-19T07:15:19.476Z,98524.69
2023-01-19T07:17:47.394Z,98535.84
2023-01-19T07:20:15.304Z,98535.88
2023-01-19T07:22:45.660Z,98541.03
2023-01-19T07:25:14.160Z,98543.63
2023-01-19T07:27:45.083Z,98553.13
2023-01-19T07:30:15.960Z,98562.59
2023-01-19T07:32:43.625Z,98561.75
2023-01-19T07:35:13.314Z,98565.22
2023-01-19T07:37:40.890Z,98445.34
2023-01-19T07:40:10.034Z,98547.97
2023-01-19T07:42:37.985Z,98576.44
2023-01-19T07:45:08.327Z,98575.59
2023-01-19T07:47:35.980Z,98572.13
2023-01-19T07:50:03.752Z,98572.13
2023-01-19T07:52:31.560Z,98585.06
2023-01-19T07:57:27.515Z,98551.44
2023-01-19T07:59:55.117Z,98606.63
2023-01-19T08:02:24.343Z,98604.06
2023-01-19T08:04:52.008Z,98609.25
2023-01-19T08:07:19.848Z,98618.72
2023-01-19T08:09:47.435Z,98617.00
2023-01-19T08:12:15.096Z,98625.63
2023-01-19T08:14:42.809Z,98631.69
2023-01-19T08:17:12.303Z,98629.94
2023-01-19T08:19:41.685Z,98638.59
2023-01-19T08:22:09.371Z,98633.38
2023-01-19T08:24:39.414Z,98640.28
2023-01-19T08:27:09.733Z,98642.88
2023-01-19T08:29:37.384Z,98650.66
2023-01-19T08:32:06.709Z,98642.88
2023-01-19T08:34:34.432Z,98649.81
2023-01-19T08:37:06.055Z,98659.28
2023-01-19T08:39:36.682Z,98658.44
2023-01-19T08:42:05.819Z,98661.84
2023-01-19T08:44:33.422Z,98642.88
2023-01-19T08:47:02.601Z,98672.22
2023-01-19T08:49:33.363Z,98648.91
2023-01-19T08:52:03.285Z,98637.72
2023-01-19T08:54:32.244Z,98686.91
2023-01-19T08:57:00.139Z,98655.81
2023-01-19T08:59:27.868Z,98686.06
2023-01-19T09:01:55.558Z,98692.09
2023-01-19T09:04:23.451Z,98696.41
2023-01-19T09:06:51.148Z,98690.38
2023-01-19T09:09:18.882Z,98699.88
2023-01-19T09:11:47.995Z,98703.31
2023-01-19T09:14:15.703Z,98667.09
2023-01-19T09:16:43.452Z,98705.03
2023-01-19T09:19:11.086Z,98664.47
2023-01-19T09:21:38.907Z,98710.22
2023-01-19T09:24:07.057Z,98680.03
2023-01-19T09:26:36.500Z,98720.56
2023-01-19T09:29:05.495Z,98709.34
2023-01-19T09:31:33.117Z,98717.09
2023-01-19T09:34:00.747Z,98716.28
2023-01-19T09:36:28.433Z,98730.06
2023-01-19T09:38:56.044Z,98730.06
2023-01-19T09:41:25.019Z,98726.63
2023-01-19T09:43:54.334Z,98729.22
2023-01-19T09:46:25.518Z,98743.03
2023-01-19T09:48:53.753Z,98736.97
2023-01-19T09:51:22.946Z,98698.97
2023-01-19T09:53:56.793Z,98736.97
2023-01-19T09:56:24.749Z,98753.38
2023-01-19T09:58:52.545Z,98755.94
2023-01-19T10:01:27.411Z,98694.69
2023-01-19T10:04:03.745Z,98776.72
2023-01-19T10:06:31.328Z,98724.88
2023-01-19T10:09:04.066Z,98731.81
2023-01-19T10:11:41.953Z,98743.88
2023-01-19T10:14:17.104Z,98761.13
2023-01-19T10:16:50.169Z,98737.81
2023-01-19T10:19:22.567Z,98685.16
2023-01-19T10:21:50.226Z,98761.97
2023-01-19T10:24:20.530Z,98739.53
2023-01-19T10:26:49.017Z,98768.88
2023-01-19T10:29:20.719Z,98761.97
2023-01-19T10:31:49.720Z,98748.16
2023-01-19T10:34:22.312Z,98771.44
2023-01-19T10:36:51.439Z,98799.16
2023-01-19T10:39:19.629Z,98754.22
2023-01-19T10:41:50.478Z,98779.25
2023-01-19T10:44:24.313Z,98778.38
2023-01-19T10:46:54.630Z,98780.16
2023-01-19T10:49:28.362Z,98773.25
2023-01-19T10:51:56.175Z,98775.03
2023-01-19T10:54:23.934Z,98789.69
2023-01-19T10:56:52.406Z,98789.69
2023-01-19T10:59:36.825Z,98761.19
2023-01-19T11:02:17.559Z,98791.41
2023-01-19T11:04:48.989Z,98779.31
2023-01-19T11:07:20.674Z,98781.88
2023-01-19T11:09:48.420Z,98785.34
2023-01-19T11:12:20.260Z,98787.03
2023-01-19T11:14:48.882Z,98793.09
2023-01-19T11:17:23.233Z,98790.50
2023-01-19T11:19:56.028Z,98754.19
2023-01-19T11:22:26.972Z,98791.31
2023-01-19T11:24:57.934Z,98795.63
2023-01-19T11:27:25.659Z,98792.16
2023-01-19T11:29:58.378Z,98798.19
2023-01-19T11:32:27.375Z,98794.72
2023-01-19T11:34:55.207Z,98796.47
2023-01-19T11:37:31.083Z,98790.31
2023-01-19T11:39:59.716Z,98792.00
2023-01-19T11:42:27.697Z,98785.94
2023-01-19T11:44:59.739Z,98760.94
2023-01-19T11:47:30.300Z,98794.63
2023-01-19T11:50:00.248Z,98776.47
2023-01-19T11:52:29.806Z,98791.16
2023-01-19T11:55:00.965Z,98777.31
2023-01-19T11:57:28.658Z,98786.78
2023-01-19T11:59:56.390Z,98795.47
2023-01-19T12:02:28.345Z,98803.28
2023-01-19T12:04:58.231Z,98791.16
2023-01-19T12:07:28.994Z,98785.06
2023-01-19T12:10:00.106Z,98794.56
2023-01-19T12:12:29.724Z,98786.81
2023-01-19T12:15:00.793Z,98749.69
2023-01-19T12:17:31.570Z,98799.78
2023-01-19T12:20:05.014Z,98757.50
2023-01-19T12:25:17.275Z,98793.75
2023-01-19T12:27:46.401Z,98792.88
2023-01-19T12:30:18.746Z,98792.88
2023-01-19T12:32:46.872Z,98795.44
2023-01-19T12:35:52.163Z,98804.09
2023-01-19T12:38:36.921Z,98804.97
2023-01-19T12:41:27.295Z,98796.34
2023-01-19T12:44:27.635Z,98798.94
2023-01-19T12:46:57.257Z,98765.25
2023-01-19T12:49:29.209Z,98788.56
2023-01-19T12:52:12.393Z,98829.28
2023-01-19T12:54:43.327Z,98786.84
2023-01-19T12:57:21.972Z,98683.31
2023-01-19T12:59:53.553Z,98794.66
2023-01-19T13:02:53.204Z,98794.69
2023-01-19T13:05:25.799Z,98804.19
2023-01-19T13:08:15.852Z,98792.94
2023-01-19T13:11:14.111Z,98801.56
2023-01-19T13:13:42.170Z,98805.06
2023-01-19T13:16:46.884Z,98801.59
2023-01-19T13:19:19.278Z,98752.38
2023-01-19T13:21:47.538Z,98756.69
2023-01-19T13:24:16.482Z,98805.84
2023-01-19T13:26:54.793Z,98810.19
2023-01-19T13:29:26.039Z,98801.50
2023-01-19T13:31:54.813Z,98811.91
2023-01-19T13:34:23.604Z,98811.91
2023-01-19T13:36:52.292Z,98811.91
2023-01-19T13:39:25.661Z,98814.50
2023-01-19T13:41:55.740Z,98811.91
2023-01-19T13:44:26.312Z,98815.38
2023-01-19T13:46:54.041Z,98817.94
2023-01-19T13:49:23.945Z,98825.72
2023-01-19T13:52:05.813Z,98850.88
2023-01-19T13:54:33.527Z,98824.00
2023-01-19T13:57:02.613Z,98830.09
2023-01-19T13:59:30.249Z,98824.91
2023-01-19T14:01:58.127Z,98814.50
2023-01-19T14:04:27.156Z,98832.63
2023-01-19T14:06:55.637Z,98841.28
2023-01-19T14:09:23.301Z,98834.34
2023-01-19T14:12:11.589Z,98822.25
2023-01-19T14:14:39.212Z,98837.84
2023-01-19T14:17:24.993Z,98840.38
2023-01-19T14:19:53.283Z,98837.78
2023-01-19T14:22:21.001Z,98849.03
2023-01-19T14:24:48.566Z,98842.09
2023-01-19T14:27:22.622Z,98850.75
2023-01-19T14:29:53.524Z,98836.94
2023-01-19T14:32:21.914Z,98845.59
2023-01-19T14:34:50.225Z,98850.75
2023-01-19T14:37:20.986Z,98782.56
2023-01-19T14:39:50.097Z,98852.50
2023-01-19T14:42:22.032Z,98814.53
2023-01-19T14:44:50.940Z,98849.94
2023-01-19T14:47:26.202Z,98849.94
2023-01-19T14:49:53.952Z,98855.13
2023-01-19T14:52:22.564Z,98854.25
2023-01-19T14:54:50.204Z,98856.81
2023-01-19T14:57:17.934Z,98862.88
2023-01-19T14:59:49.544Z,98850.75
2023-01-19T15:02:18.489Z,98860.28
2023-01-19T15:04:47.831Z,98837.81
2023-01-19T15:07:18.074Z,98867.16
2023-01-19T15:10:13.751Z,98868.06
2023-01-19T15:12:41.360Z,98865.47
2023-01-19T15:15:15.759Z,98876.75
2023-01-19T15:17:43.445Z,98880.25
2023-01-19T15:20:16.956Z,98883.72
2023-01-19T15:22:44.986Z,98883.72
2023-01-19T15:25:15.862Z,98891.53
2023-01-19T15:27:43.987Z,98886.34
2023-01-19T15:30:17.303Z,98896.78
2023-01-19T15:32:46.074Z,98889.88
2023-01-19T15:35:17.085Z,98890.75
2023-01-19T15:37:46.984Z,98896.81
2023-01-19T15:40:14.927Z,98909.81
2023-01-19T15:42:46.603Z,98863.13
2023-01-19T15:45:34.574Z,98903.78
2023-01-19T15:48:02.416Z,98911.56
2023-01-19T15:50:30.177Z,98905.50
2023-01-19T15:52:57.833Z,98911.56
2023-01-19T15:55:25.743Z,98903.78
2023-01-19T15:57:53.384Z,98914.19
2023-01-19T16:00:21.425Z,98920.22
2023-01-19T16:02:52.050Z,98915.03
2023-01-19T16:05:19.819Z,98918.50
2023-01-19T16:07:47.707Z,98916.75
2023-01-19T16:10:16.866Z,98921.09
2023-01-19T16:12:46.451Z,98926.28
2023-01-19T16:15:14.300Z,98932.34
2023-01-19T16:17:41.989Z,98922.84
2023-01-19T16:20:14.471Z,98915.91
2023-01-19T16:22:42.527Z,98934.09
2023-01-19T16:25:10.611Z,98933.22
2023-01-19T16:27:38.253Z,98937.56
2023-01-19T16:30:07.053Z,98937.56
2023-01-19T16:32:36.403Z,98927.16
2023-01-19T16:35:04.014Z,98938.41
2023-01-19T16:37:33.037Z,98945.34
2023-01-19T16:40:00.712Z,98945.34
2023-01-19T16:42:28.438Z,98947.94
2023-01-19T16:44:56.108Z,98946.16
2023-01-19T16:47:23.834Z,98942.72
2023-01-19T16:49:51.399Z,98940.13
2023-01-19T16:52:19.082Z,98960.06
2023-01-19T16:54:48.043Z,98953.13
2023-01-19T16:57:15.732Z,98953.97
2023-01-19T16:59:45.014Z,98957.47
2023-01-19T17:02:12.795Z,98960.06
2023-01-19T17:04:40.456Z,98961.78
2023-01-19T17:07:08.100Z,98965.25
2023-01-19T17:09:35.719Z,98967.84
2023-01-19T17:12:05.215Z,98979.94
2023-01-19T17:14:33.374Z,98972.16
2023-01-19T17:17:02.200Z,98974.75
2023-01-19T17:19:29.861Z,98972.16
2023-01-19T17:21:57.449Z,98985.13
2023-01-19T17:24:25.063Z,98978.22
2023-01-19T17:26:52.661Z,98982.53
2023-01-19T17:29:21.592Z,98971.31
2023-01-19T17:31:50.813Z,98985.16
2023-01-19T17:34:18.408Z,98983.41
2023-01-19T17:36:46.152Z,98990.34
2023-01-19T17:39:14.831Z,98996.41
2023-01-19T17:41:42.649Z,98992.06
2023-01-19T17:44:10.333Z,98993.81
2023-01-19T17:46:39.427Z,98993.78
2023-01-19T17:49:15.482Z,98992.06
2023-01-19T17:51:43.054Z,98967.84
2023-01-19T17:54:12.413Z,99002.47
2023-01-19T17:56:41.236Z,99006.78
2023-01-19T17:59:10.002Z,99003.31
2023-01-19T18:01:40.325Z,98989.47
2023-01-19T18:04:08.237Z,98995.53
2023-01-19T18:06:35.917Z,99003.31
2023-01-19T18:09:04.905Z,99001.56
2023-01-19T18:11:32.487Z,98992.06
2023-01-19T18:14:00.686Z,98998.13
2023-01-19T18:16:29.900Z,99000.72
2023-01-19T18:18:58.946Z,99002.47
2023-01-19T18:21:28.023Z,98993.78
2023-01-19T18:24:00.029Z,98989.47
2023-01-19T18:26:27.720Z,98956.59
2023-01-19T18:28:56.436Z,99005.91
2023-01-19T18:31:24.637Z,98986.00
2023-01-19T18:33:52.620Z,99007.66
2023-01-19T18:36:21.894Z,99000.72
2023-01-19T18:38:49.921Z,99005.91
2023-01-19T18:41:18.591Z,98981.69
2023-01-19T18:43:46.573Z,98994.69
2023-01-19T18:46:14.647Z,98975.63
2023-01-19T18:48:43.570Z,99011.09
2023-01-19T18:51:12.151Z,99012.84
2023-01-19T18:53:41.322Z,98990.34
2023-01-19T18:56:17.266Z,99011.97
2023-01-19T18:58:45.415Z,99018.03
2023-01-19T19:01:25.468Z,99014.56
2023-01-19T19:03:53.516Z,98971.31
2023-01-19T19:06:21.739Z,99011.97
2023-01-19T19:08:51.180Z,99003.31
2023-01-19T19:11:19.248Z,99016.31
2023-01-19T19:13:47.277Z,98991.22
2023-01-19T19:16:15.596Z,98982.56
2023-01-19T19:18:43.630Z,99026.69
2023-01-19T19:21:14.303Z,99027.53
2023-01-19T19:23:42.027Z,99011.97
2023-01-19T19:26:11.875Z,98998.97
2023-01-19T19:28:40.319Z,98966.97
2023-01-19T19:31:09.181Z,99015.44
2023-01-19T19:33:37.053Z,99030.16
2023-01-19T19:36:05.298Z,99029.28
2023-01-19T19:38:33.085Z,99028.44
2023-01-19T19:41:00.954Z,99038.81
2023-01-19T19:43:32.631Z,99023.22
2023-01-19T19:46:00.501Z,98994.66
2023-01-19T19:48:28.274Z,99038.78
2023-01-19T19:50:56.694Z,99036.22
2023-01-19T19:53:26.395Z,99032.75
2023-01-19T19:55:58.028Z,98989.47
2023-01-19T19:58:25.711Z,99047.47
2023-01-19T20:00:55.089Z,99012.81
2023-01-19T20:03:22.786Z,99042.25
2023-01-19T20:05:50.729Z,99051.81
2023-01-19T20:08:18.385Z,99044.84
2023-01-19T20:10:46.166Z,99042.25
2023-01-19T20:13:15.748Z,99049.19
2023-01-19T20:15:43.633Z,99051.81
2023-01-19T20:18:12.950Z,99054.38
2023-01-19T20:20:40.689Z,99057.84
2023-01-19T20:23:08.451Z,99068.22
2023-01-19T20:25:39.387Z,99052.66
2023-01-19T20:28:07.210Z,99068.22
2023-01-19T20:30:35.017Z,99068.22
2023-01-19T20:33:02.961Z,99076.03
2023-01-19T20:35:32.021Z,99067.38
2023-01-19T20:37:59.821Z,99076.88
2023-01-19T20:40:27.534Z,99069.06
2023-01-19T20:42:55.147Z,99072.53
2023-01-19T20:45:25.928Z,99082.06
2023-01-19T20:47:54.338Z,99090.69
2023-01-19T20:50:22.114Z,99088.09
2023-01-19T20:52:51.477Z,99092.41
2023-01-19T20:55:42.120Z,99103.63
2023-01-19T20:58:09.809Z,99102.75
2023-01-19T21:00:37.693Z,99107.94
2023-01-19T21:03:05.512Z,99095.81
2023-01-19T21:05:33.242Z,99107.94
2023-01-19T21:08:02.260Z,99109.66
2023-01-19T21:10:30.319Z,99084.47
2023-01-19T21:12:57.921Z,99112.22
2023-01-19T21:15:25.655Z,99049.00
2023-01-19T21:17:53.416Z,99110.47
2023-01-19T21:20:21.306Z,99064.59
2023-01-19T21:22:48.922Z,99131.31
2023-01-19T21:25:18.120Z,99130.44
2023-01-19T21:27:45.972Z,99128.69
2023-01-19T21:30:13.898Z,99129.59
2023-01-19T21:32:41.716Z,99146.88
2023-01-19T21:35:09.729Z,99136.53
2023-01-19T21:37:37.459Z,99142.59
2023-01-19T21:40:06.014Z,99145.19
2023-01-19T21:42:35.413Z,99146.94
2023-01-19T21:45:04.430Z,99156.47
2023-01-19T21:47:32.130Z,99156.44
2023-01-19T21:50:01.296Z,99163.38
2023-01-19T21:52:29.050Z,99130.44
2023-01-19T21:54:56.900Z,99158.19
2023-01-19T21:57:24.566Z,99132.16
2023-01-19T21:59:53.593Z,99169.44
2023-01-19T22:02:37.192Z,99167.72
2023-01-19T22:05:07.076Z,99145.16
2023-01-19T22:07:34.745Z,99179.81
2023-01-19T22:10:02.348Z,99181.56
2023-01-19T22:12:30.156Z,99181.56
2023-01-19T22:14:59.217Z,99173.78
2023-01-19T22:17:26.908Z,99184.16
2023-01-19T22:19:54.512Z,99186.75
2023-01-19T22:22:28.390Z,99178.09
2023-01-19T22:24:56.161Z,99198.88
2023-01-19T22:27:24.655Z,99199.75
2023-01-19T22:29:52.574Z,99204.94
2023-01-19T22:32:21.705Z,99203.22
2023-01-19T22:34:49.436Z,99204.97
2023-01-19T22:37:17.101Z,99207.56
2023-01-19T22:39:44.730Z,99198.88
2023-01-19T22:42:12.454Z,99214.50
2023-01-19T22:44:40.294Z,99188.50
2023-01-19T22:47:08.055Z,99206.66
2023-01-19T22:49:37.087Z,99205.81
2023-01-19T22:52:05.089Z,99209.31
2023-01-19T22:54:32.758Z,99186.75
2023-01-19T22:57:00.645Z,99159.00
2023-01-19T22:59:32.009Z,99215.34
2023-01-19T23:02:01.034Z,99192.72
2023-01-19T23:04:28.878Z,99219.66
2023-01-19T23:06:58.023Z,99214.47
2023-01-19T23:09:25.911Z,99210.16
2023-01-19T23:11:53.617Z,99196.25
2023-01-19T23:14:21.928Z,99161.59
2023-01-19T23:16:49.648Z,99221.41
2023-01-19T23:19:18.295Z,99221.41
2023-01-19T23:21:46.332Z,99224.88
2023-01-19T23:24:15.617Z,99229.19
2023-01-19T23:26:43.634Z,99218.78
2023-01-19T23:29:12.479Z,99223.97
2023-01-19T23:31:40.837Z,99229.16
2023-01-19T23:34:09.578Z,99223.09
2023-01-19T23:36:38.414Z,99195.34
2023-01-19T23:39:09.750Z,99238.69
2023-01-19T23:41:39.802Z,99240.41
2023-01-19T23:44:07.376Z,99240.41
2023-01-19T23:46:35.165Z,99243.88
2023-01-19T23:49:06.091Z,99243.00
2023-01-19T23:51:34.971Z,99249.06
2023-01-19T23:54:02.960Z,99251.66
2023-01-19T23:56:36.265Z,99246.44
2023-01-19T23:59:06.959Z,99250.78
